This is the latest recevied weather packets stored in our database for station/object DL9SEC-13. If no packets are shown the sender has not sent any weather packets the latest 1 day(s).
| Time | Temp. | Humidity | Pressure | Rain* | Wind** | Luminosity | Snow |
|---|---|---|---|---|---|---|---|
| 1777978503 | 20.56° C | 57% | 1010.9 hPa | 0 mm | 0.89 m/s, 270° | - | - |
| 1777977603 | 21.67° C | 58% | 1011 hPa | 0 mm | 2.24 m/s, 248° | - | - |
| 1777976703 | 20° C | 58% | 1011.1 hPa | 0 mm | 0 m/s | - | - |
| 1777975803 | 20° C | 60% | 1011.3 hPa | 0 mm | 0.45 m/s, 248° | - | - |
| 1777974903 | 19.44° C | 59% | 1011.4 hPa | 0 mm | 0 m/s | - | - |
| 1777974003 | 20.56° C | 61% | 1011.5 hPa | 0 mm | 0.89 m/s, 270° | - | - |
| 1777973103 | 19.44° C | 64% | 1011.7 hPa | 0 mm | 0 m/s | - | - |
| 1777972203 | 19.44° C | 64% | 1011.9 hPa | 0 mm | 0.45 m/s, 248° | - | - |
| 1777971303 | 17.78° C | 65% | 1012 hPa | 0 mm | 1.34 m/s, 315° | - | - |
| 1777970402 | 17.22° C | 67% | 1012.1 hPa | 0 mm | 2.24 m/s, 315° | - | - |
| 1777969503 | 16.67° C | 70% | 1012.1 hPa | 0 mm | 0.89 m/s, 292° | - | - |
| 1777968603 | 16.67° C | 70% | 1012.2 hPa | 0 mm | 1.34 m/s, 292° | - | - |
| 1777967703 | 16.67° C | 68% | 1012.3 hPa | 0 mm | 0.89 m/s, 315° | - | - |
| 1777966803 | 17.22° C | 67% | 1012.3 hPa | 0 mm | 1.34 m/s, 270° | - | - |
| 1777965903 | 17.78° C | 67% | 1012.4 hPa | 0 mm | 0 m/s | - | - |
| 1777965003 | 17.22° C | 66% | 1012.5 hPa | 0 mm | 1.34 m/s, 270° | - | - |
| 1777964103 | 16.11° C | 67% | 1012.6 hPa | 0 mm | 0 m/s | - | - |
| 1777963203 | 16.67° C | 71% | 1012.7 hPa | 0 mm | 0.89 m/s, 315° | - | - |
| 1777962303 | 18.33° C | 61% | 1012.7 hPa | 0 mm | 0 m/s | - | - |
| 1777961403 | 15° C | 70% | 1012.8 hPa | 0 mm | 0 m/s | - | - |
| 1777960503 | 13.33° C | 76% | 1012.9 hPa | 0 mm | 0 m/s | - | - |
| 1777959602 | 12.22° C | 82% | 1013 hPa | 0 mm | 0 m/s | - | - |
| 1777958703 | 11.67° C | 84% | 1013 hPa | 0 mm | 1.34 m/s, 90° | - | - |
| 1777957803 | 12.22° C | 82% | 1013 hPa | 0 mm | 0.45 m/s, 90° | - | - |
| 1777956903 | 11.67° C | 82% | 1013 hPa | 0 mm | 0 m/s | - | - |
* Rain latest hour (hover to see other rain measurements)
** Current wind speed in m/s (hover to see current wind gust speed)